Weather at Fuerteventura Airport

Public forecast

Using degrees Celsius for public forecast. Weather courtesy of forecast.io.

Current aviation weather report (METAR) for Fuerteventura Airport

Retrieved 2020/10/30 12:30 UTC (13 minutes ago):

GCFV 301230Z 14005KT 110V170 CAVOK 26/09 Q1019

Aviation forecast (TAF) for Fuerteventura Airport

Retrieved 2020/10/30 09:27 UTC (3 hours ago):

TAF TAF GCFV 300800Z 3009/3109 12008KT 8000 NSC TX27/3014Z TN20/3107Z BECMG 3016/3018 36010KT